Terminal Aerodrome Forecast
Issued by NWS

Home | Current Version | Previous Version | Graphics & Text | Print | Product List | Glossary On
Versions: 1 2 3 4 5 6 7 8 9 10 11 12 13 14 15 16 17
000
FTUS43 KOAX 242320
TAFCDR
TAF
KCDR 242320Z 2500/2524 VRB05KT P6SM BKN080
     FM250300 VRB05KT P6SM VCTS BKN080CB
      TEMPO 2503/2507 VRB25G35KT 5SM -TSRA SCT030 BKN050CB
     FM250700 VRB05KT P6SM VCSH BKN050=

USA.gov is the U.S. government's official web portal to all federal, state and local government web resources and services.